createdAt,value
2023-05-19T00:03:13.131Z,10.89
2023-05-19T00:08:27.838Z,10.95
2023-05-19T00:13:29.790Z,10.28
2023-05-19T00:18:34.671Z,10.41
2023-05-19T00:23:36.919Z,10.69
2023-05-19T00:28:38.655Z,10.33
2023-05-19T00:33:52.113Z,10.11
2023-05-19T00:38:53.738Z,10.51
2023-05-19T00:44:04.230Z,10.14
2023-05-19T00:49:07.225Z,9.74
2023-05-19T00:54:09.426Z,10.31
2023-05-19T00:59:13.241Z,10.22
2023-05-19T01:04:21.859Z,10.75
2023-05-19T01:09:23.948Z,9.77
2023-05-19T01:14:27.898Z,10.09
2023-05-19T01:19:41.424Z,10.11
2023-05-19T01:25:15.033Z,10.29
2023-05-19T01:30:34.698Z,10.91
2023-05-19T01:35:39.098Z,10.33
2023-05-19T01:40:44.394Z,10.47
2023-05-19T01:45:51.564Z,10.56
2023-05-19T01:50:57.374Z,9.89
2023-05-19T01:55:59.318Z,10.50
2023-05-19T02:01:19.331Z,9.65
2023-05-19T02:06:38.676Z,10.45
2023-05-19T02:11:46.662Z,9.08
2023-05-19T02:16:49.013Z,9.87
2023-05-19T02:21:50.739Z,9.80
2023-05-19T02:26:53.747Z,10.30
2023-05-19T02:32:00.155Z,10.60
2023-05-19T02:37:02.148Z,10.83
2023-05-19T02:42:11.658Z,9.24
2023-05-19T02:47:13.899Z,9.66
2023-05-19T02:52:16.624Z,10.47
2023-05-19T02:57:18.289Z,9.76
2023-05-19T03:02:34.261Z,9.11
2023-05-19T03:07:39.193Z,9.21
2023-05-19T03:12:42.871Z,8.71
2023-05-19T03:17:44.792Z,9.12
2023-05-19T03:22:49.004Z,9.33
2023-05-19T03:27:50.785Z,8.62
2023-05-19T03:33:09.572Z,8.43
2023-05-19T03:38:11.334Z,9.24
2023-05-19T03:48:31.424Z,9.09
2023-05-19T03:53:40.455Z,8.55
2023-05-19T03:58:53.694Z,9.72
2023-05-19T04:04:06.470Z,8.95
2023-05-19T04:09:24.142Z,9.12
2023-05-19T04:14:32.858Z,8.63
2023-05-19T04:19:55.405Z,8.40
2023-05-19T04:25:08.348Z,9.38
2023-05-19T04:30:23.283Z,8.23
2023-05-19T04:35:26.166Z,8.79
2023-05-19T04:40:35.670Z,8.27
2023-05-19T04:45:45.434Z,8.95
2023-05-19T04:50:51.841Z,8.28
2023-05-19T04:55:53.569Z,9.46
2023-05-19T05:01:03.553Z,9.00
2023-05-19T05:06:07.740Z,9.76
2023-05-19T05:16:28.422Z,9.55
2023-05-19T05:21:35.747Z,10.27
2023-05-19T05:26:44.876Z,9.56
2023-05-19T05:31:48.439Z,10.25
2023-05-19T05:36:58.101Z,9.74
2023-05-19T05:41:59.779Z,10.65
2023-05-19T05:47:02.737Z,9.79
2023-05-19T05:52:06.532Z,11.06
2023-05-19T05:57:34.880Z,11.36
2023-05-19T06:02:36.901Z,11.90
2023-05-19T06:07:45.706Z,11.59
2023-05-19T06:12:55.819Z,12.26
2023-05-19T06:18:01.412Z,12.66
2023-05-19T06:23:10.407Z,10.86
2023-05-19T06:28:12.137Z,10.88
2023-05-19T06:33:16.755Z,11.84
2023-05-19T06:38:21.457Z,12.58
2023-05-19T06:43:26.108Z,12.54
2023-05-19T06:48:35.505Z,12.69
2023-05-19T06:53:39.921Z,11.81
2023-05-19T06:58:41.715Z,11.92
2023-05-19T07:03:56.672Z,11.90
2023-05-19T07:09:05.543Z,13.26
2023-05-19T07:14:09.437Z,14.34
2023-05-19T07:19:13.665Z,13.61
2023-05-19T07:24:25.024Z,13.45
2023-05-19T07:29:29.192Z,13.04
2023-05-19T07:34:33.421Z,13.43
2023-05-19T07:39:40.075Z,13.03
2023-05-19T07:44:44.598Z,14.15
2023-05-19T07:49:46.287Z,13.64
2023-05-19T07:54:52.618Z,12.60
2023-05-19T08:00:10.048Z,14.56
2023-05-19T08:05:15.491Z,14.70
2023-05-19T08:10:32.293Z,14.40
2023-05-19T08:15:34.204Z,15.60
2023-05-19T08:20:51.372Z,14.25
2023-05-19T08:26:03.021Z,15.97
2023-05-19T08:31:28.889Z,14.02
2023-05-19T08:36:30.793Z,14.91
2023-05-19T08:41:39.374Z,14.56
2023-05-19T08:46:55.777Z,15.00
2023-05-19T08:52:25.356Z,15.58
2023-05-19T08:57:33.956Z,14.73
2023-05-19T09:02:43.390Z,16.27
2023-05-19T09:08:01.410Z,16.29
2023-05-19T09:13:06.498Z,16.35
2023-05-19T09:18:34.523Z,16.42
2023-05-19T09:23:36.351Z,16.39
2023-05-19T09:28:42.804Z,16.02
2023-05-19T09:34:29.700Z,16.72
2023-05-19T09:39:32.917Z,16.97
2023-05-19T09:45:01.557Z,16.76
2023-05-19T09:50:04.908Z,17.18
2023-05-19T09:55:10.684Z,16.24
2023-05-19T10:01:52.776Z,16.43
2023-05-19T10:06:09.046Z,15.35
2023-05-19T10:11:29.246Z,17.26
2023-05-19T10:16:42.821Z,16.70
2023-05-19T10:21:52.505Z,16.67
2023-05-19T10:27:31.326Z,16.80
2023-05-19T10:32:40.792Z,17.68
2023-05-19T10:38:18.001Z,17.47
2023-05-19T10:49:36.176Z,16.87
2023-05-19T10:54:16.835Z,16.88
2023-05-19T10:59:42.177Z,17.62
2023-05-19T11:06:50.203Z,15.52
2023-05-19T11:12:15.512Z,15.14
2023-05-19T11:17:21.272Z,15.45
2023-05-19T11:22:34.036Z,16.25
2023-05-19T11:27:38.649Z,16.28
2023-05-19T11:32:42.648Z,16.26
2023-05-19T11:37:58.336Z,16.67
2023-05-19T11:43:03.498Z,16.67
2023-05-19T11:48:06.711Z,16.58
2023-05-19T11:53:12.149Z,16.94
2023-05-19T11:58:42.255Z,16.16
2023-05-19T12:04:04.142Z,17.68
2023-05-19T12:09:22.525Z,17.60
2023-05-19T12:14:29.718Z,16.78
2023-05-19T12:19:32.950Z,16.48
2023-05-19T12:24:49.924Z,16.78
2023-05-19T12:30:01.823Z,16.60
2023-05-19T12:35:12.527Z,17.11
2023-05-19T12:40:17.785Z,16.33
2023-05-19T12:45:22.856Z,16.52
2023-05-19T12:50:56.618Z,16.28
2023-05-19T12:56:00.759Z,16.83
2023-05-19T13:01:20.432Z,16.88
2023-05-19T13:06:29.449Z,16.98
2023-05-19T13:11:38.796Z,16.98
2023-05-19T13:16:47.067Z,16.35
2023-05-19T13:21:51.277Z,17.12
2023-05-19T13:31:58.535Z,17.31
2023-05-19T13:37:11.695Z,15.90
2023-05-19T13:42:13.401Z,16.89
2023-05-19T13:58:47.242Z,17.46
2023-05-19T14:03:49.541Z,17.28
2023-05-19T14:08:51.293Z,17.39
2023-05-19T14:13:53.240Z,18.61
2023-05-19T14:18:55.024Z,17.49
2023-05-19T14:23:56.990Z,17.06
2023-05-19T14:28:58.681Z,16.74
2023-05-19T14:34:00.354Z,18.09
2023-05-19T14:39:02.208Z,17.79
2023-05-19T14:44:03.982Z,18.10
2023-05-19T14:49:06.592Z,17.69
2023-05-19T14:54:08.276Z,17.84
2023-05-19T14:59:10.275Z,17.50
2023-05-19T15:04:11.978Z,16.48
2023-05-19T15:09:14.994Z,17.19
2023-05-19T15:14:16.635Z,17.12
2023-05-19T15:19:18.647Z,17.09
2023-05-19T15:24:20.361Z,16.31
2023-05-19T15:29:22.004Z,17.33
2023-05-19T15:34:23.641Z,17.17
2023-05-19T15:39:25.704Z,17.81
2023-05-19T15:44:28.997Z,18.00
2023-05-19T15:49:30.968Z,17.71
2023-05-19T15:54:32.546Z,18.21
2023-05-19T15:59:34.142Z,17.90
2023-05-19T16:04:35.851Z,17.54
2023-05-19T16:09:37.451Z,17.12
2023-05-19T16:14:39.104Z,17.76
2023-05-19T16:19:40.787Z,16.75
2023-05-19T16:24:42.449Z,18.04
2023-05-19T16:29:44.104Z,17.12
2023-05-19T16:34:45.815Z,17.10
2023-05-19T16:39:48.456Z,16.31
2023-05-19T16:44:50.061Z,16.74
2023-05-19T16:49:51.851Z,16.07
2023-05-19T16:54:53.480Z,16.83
2023-05-19T16:59:55.164Z,17.60
2023-05-19T17:04:56.696Z,17.36
2023-05-19T17:09:58.314Z,17.03
2023-05-19T17:14:59.996Z,17.97
2023-05-19T17:20:02.147Z,16.90
2023-05-19T17:25:04.017Z,17.45
2023-05-19T17:30:07.054Z,17.42
2023-05-19T17:35:08.830Z,18.04
2023-05-19T17:40:11.196Z,17.88
2023-05-19T17:45:12.812Z,17.65
2023-05-19T17:50:14.502Z,18.30
2023-05-19T17:55:16.509Z,19.02
2023-05-19T18:00:18.703Z,18.04
2023-05-19T18:05:20.831Z,19.23
2023-05-19T18:10:25.756Z,18.28
2023-05-19T18:15:27.475Z,18.29
2023-05-19T18:20:31.030Z,18.91
2023-05-19T18:25:32.839Z,18.60
2023-05-19T18:30:34.828Z,18.47
2023-05-19T18:35:37.271Z,18.52
2023-05-19T18:40:43.522Z,19.07
2023-05-19T18:45:48.371Z,18.88
2023-05-19T18:50:50.046Z,18.96
2023-05-19T18:55:52.043Z,18.91
2023-05-19T19:00:56.903Z,18.99
2023-05-19T19:05:59.972Z,18.77
2023-05-19T19:11:01.816Z,19.44
2023-05-19T19:16:04.048Z,19.72
2023-05-19T19:21:06.059Z,18.96
2023-05-19T19:26:09.338Z,19.12
2023-05-19T19:31:10.986Z,17.86
2023-05-19T19:36:12.665Z,18.59
2023-05-19T19:41:14.226Z,18.98
2023-05-19T19:46:15.941Z,19.14
2023-05-19T19:51:17.668Z,18.93
2023-05-19T19:56:19.316Z,17.83
2023-05-19T20:01:23.482Z,18.90
2023-05-19T20:06:25.610Z,17.83
2023-05-19T20:11:27.356Z,17.41
2023-05-19T20:16:29.120Z,17.71
2023-05-19T20:21:30.805Z,16.20
2023-05-19T20:26:32.492Z,16.27
2023-05-19T20:31:34.178Z,15.30
2023-05-19T20:36:36.465Z,15.48
2023-05-19T20:41:38.191Z,15.76
2023-05-19T20:46:39.773Z,15.88
2023-05-19T20:51:41.337Z,15.71
2023-05-19T20:56:43.072Z,15.10
2023-05-19T21:01:46.023Z,14.89
2023-05-19T21:06:47.726Z,16.16
2023-05-19T21:11:49.565Z,15.51
2023-05-19T21:16:54.372Z,15.97
2023-05-19T21:21:56.993Z,16.02
2023-05-19T21:26:58.568Z,17.60
2023-05-19T21:32:00.141Z,16.46
2023-05-19T21:37:01.784Z,15.71
2023-05-19T21:42:03.987Z,14.81
2023-05-19T21:47:05.752Z,14.21
2023-05-19T21:52:07.928Z,14.48
2023-05-19T21:57:11.199Z,13.88
2023-05-19T22:02:12.944Z,14.18
2023-05-19T22:07:14.550Z,14.63
2023-05-19T22:12:16.417Z,14.23
2023-05-19T22:17:18.138Z,13.65
2023-05-19T22:22:19.815Z,14.38
2023-05-19T22:27:21.503Z,15.41
2023-05-19T22:32:23.150Z,14.84
2023-05-19T22:37:24.816Z,14.87
2023-05-19T22:42:26.945Z,14.23
2023-05-19T22:47:29.748Z,14.14
2023-05-19T22:52:31.410Z,13.65
2023-05-19T22:57:33.094Z,13.72
2023-05-19T23:02:34.721Z,13.18
2023-05-19T23:07:36.407Z,14.33
2023-05-19T23:12:38.057Z,13.72
2023-05-19T23:17:39.668Z,13.55
2023-05-19T23:22:41.419Z,14.36
2023-05-19T23:27:43.060Z,14.42
2023-05-19T23:32:44.755Z,14.33
2023-05-19T23:37:46.481Z,14.08
2023-05-19T23:42:48.101Z,13.42
2023-05-19T23:47:49.710Z,14.84
2023-05-19T23:52:51.409Z,13.88
2023-05-19T23:57:53.110Z,13.83
